sensor_id;sensor_type;location;lat;lon;timestamp;pressure;altitude;pressure_sealevel;temperature
15607;BMP180;7865;50.918;4.510;2023-07-08T00:01:07;101050.00;;;17.70
15607;BMP180;7865;50.918;4.510;2023-07-08T00:06:17;101043.00;;;17.60
15607;BMP180;7865;50.918;4.510;2023-07-08T00:11:18;101039.00;;;17.40
15607;BMP180;7865;50.918;4.510;2023-07-08T00:16:20;101037.00;;;17.30
15607;BMP180;7865;50.918;4.510;2023-07-08T00:21:21;101034.00;;;17.20
15607;BMP180;7865;50.918;4.510;2023-07-08T00:26:25;101034.00;;;17.10
15607;BMP180;7865;50.918;4.510;2023-07-08T00:31:27;101028.00;;;17.00
15607;BMP180;7865;50.918;4.510;2023-07-08T00:36:29;101032.00;;;17.00
15607;BMP180;7865;50.918;4.510;2023-07-08T00:41:34;101034.00;;;16.90
15607;BMP180;7865;50.918;4.510;2023-07-08T00:46:50;101020.00;;;16.90
15607;BMP180;7865;50.918;4.510;2023-07-08T00:51:54;101018.00;;;16.80
15607;BMP180;7865;50.918;4.510;2023-07-08T00:56:59;101018.00;;;16.80
15607;BMP180;7865;50.918;4.510;2023-07-08T01:02:04;101027.00;;;16.60
15607;BMP180;7865;50.918;4.510;2023-07-08T01:07:08;101022.00;;;16.50
15607;BMP180;7865;50.918;4.510;2023-07-08T01:12:17;101026.00;;;16.40
15607;BMP180;7865;50.918;4.510;2023-07-08T01:17:21;101021.00;;;16.40
15607;BMP180;7865;50.918;4.510;2023-07-08T01:22:23;101017.00;;;16.30
15607;BMP180;7865;50.918;4.510;2023-07-08T01:27:24;101020.00;;;16.20
15607;BMP180;7865;50.918;4.510;2023-07-08T01:32:25;101013.00;;;16.20
15607;BMP180;7865;50.918;4.510;2023-07-08T01:37:36;100995.00;;;16.20
15607;BMP180;7865;50.918;4.510;2023-07-08T01:42:38;100998.00;;;16.20
15607;BMP180;7865;50.918;4.510;2023-07-08T01:47:41;100987.00;;;16.10
15607;BMP180;7865;50.918;4.510;2023-07-08T01:52:43;100995.00;;;16.00
15607;BMP180;7865;50.918;4.510;2023-07-08T01:57:45;100995.00;;;15.90
15607;BMP180;7865;50.918;4.510;2023-07-08T02:02:46;100997.00;;;15.90
15607;BMP180;7865;50.918;4.510;2023-07-08T02:07:48;100990.00;;;15.80
15607;BMP180;7865;50.918;4.510;2023-07-08T02:12:49;100990.00;;;15.70
15607;BMP180;7865;50.918;4.510;2023-07-08T02:17:50;100987.00;;;15.70
15607;BMP180;7865;50.918;4.510;2023-07-08T02:22:52;100993.00;;;15.60
15607;BMP180;7865;50.918;4.510;2023-07-08T02:27:53;100988.00;;;15.60
15607;BMP180;7865;50.918;4.510;2023-07-08T02:32:58;100990.00;;;15.40
15607;BMP180;7865;50.918;4.510;2023-07-08T02:37:59;100994.00;;;15.40
15607;BMP180;7865;50.918;4.510;2023-07-08T02:43:00;101003.00;;;15.30
15607;BMP180;7865;50.918;4.510;2023-07-08T02:48:02;101004.00;;;15.40
15607;BMP180;7865;50.918;4.510;2023-07-08T02:53:03;101011.00;;;15.40
15607;BMP180;7865;50.918;4.510;2023-07-08T02:58:05;101000.00;;;15.60
15607;BMP180;7865;50.918;4.510;2023-07-08T03:03:06;101008.00;;;15.70
15607;BMP180;7865;50.918;4.510;2023-07-08T03:08:08;101013.00;;;15.70
15607;BMP180;7865;50.918;4.510;2023-07-08T03:13:09;101013.00;;;15.70
15607;BMP180;7865;50.918;4.510;2023-07-08T03:18:11;101022.00;;;15.70
15607;BMP180;7865;50.918;4.510;2023-07-08T03:23:12;101020.00;;;15.60
15607;BMP180;7865;50.918;4.510;2023-07-08T03:28:14;101023.00;;;15.60
15607;BMP180;7865;50.918;4.510;2023-07-08T03:33:17;101018.00;;;15.60
15607;BMP180;7865;50.918;4.510;2023-07-08T03:38:18;101016.00;;;15.60
15607;BMP180;7865;50.918;4.510;2023-07-08T03:43:19;101014.00;;;15.70
15607;BMP180;7865;50.918;4.510;2023-07-08T03:48:21;101007.00;;;15.70
15607;BMP180;7865;50.918;4.510;2023-07-08T03:53:24;101010.00;;;15.60
15607;BMP180;7865;50.918;4.510;2023-07-08T03:58:27;101013.00;;;15.50
15607;BMP180;7865;50.918;4.510;2023-07-08T04:03:28;101012.00;;;15.50
15607;BMP180;7865;50.918;4.510;2023-07-08T04:08:30;101002.00;;;15.50
15607;BMP180;7865;50.918;4.510;2023-07-08T04:13:32;101000.00;;;15.50
15607;BMP180;7865;50.918;4.510;2023-07-08T04:18:33;100995.00;;;15.60
15607;BMP180;7865;50.918;4.510;2023-07-08T04:23:35;100991.00;;;15.70
15607;BMP180;7865;50.918;4.510;2023-07-08T04:28:36;101004.00;;;15.80
15607;BMP180;7865;50.918;4.510;2023-07-08T04:33:38;101011.00;;;15.90
15607;BMP180;7865;50.918;4.510;2023-07-08T04:38:39;100994.00;;;16.00
15607;BMP180;7865;50.918;4.510;2023-07-08T04:43:42;101001.00;;;16.20
15607;BMP180;7865;50.918;4.510;2023-07-08T04:48:43;101006.00;;;16.30
15607;BMP180;7865;50.918;4.510;2023-07-08T04:53:45;101010.00;;;16.50
15607;BMP180;7865;50.918;4.510;2023-07-08T04:58:46;101001.00;;;16.80
15607;BMP180;7865;50.918;4.510;2023-07-08T05:03:47;101012.00;;;17.10
15607;BMP180;7865;50.918;4.510;2023-07-08T05:08:49;101011.00;;;17.50
15607;BMP180;7865;50.918;4.510;2023-07-08T05:13:50;101006.00;;;17.90
15607;BMP180;7865;50.918;4.510;2023-07-08T05:18:52;101002.00;;;18.40
15607;BMP180;7865;50.918;4.510;2023-07-08T05:23:53;101013.00;;;18.80
15607;BMP180;7865;50.918;4.510;2023-07-08T05:28:54;101014.00;;;19.30
15607;BMP180;7865;50.918;4.510;2023-07-08T05:33:56;101009.00;;;19.70
15607;BMP180;7865;50.918;4.510;2023-07-08T05:38:57;101001.00;;;20.20
15607;BMP180;7865;50.918;4.510;2023-07-08T05:43:58;101002.00;;;20.70
15607;BMP180;7865;50.918;4.510;2023-07-08T05:48:59;100999.00;;;21.30
15607;BMP180;7865;50.918;4.510;2023-07-08T05:54:03;100999.00;;;21.80
15607;BMP180;7865;50.918;4.510;2023-07-08T05:59:04;101002.00;;;22.30
15607;BMP180;7865;50.918;4.510;2023-07-08T06:04:05;101003.00;;;22.70
15607;BMP180;7865;50.918;4.510;2023-07-08T06:09:07;101005.00;;;23.10
15607;BMP180;7865;50.918;4.510;2023-07-08T06:14:08;101009.00;;;23.50
15607;BMP180;7865;50.918;4.510;2023-07-08T06:19:09;101015.00;;;24.00
15607;BMP180;7865;50.918;4.510;2023-07-08T06:24:11;101007.00;;;24.30
15607;BMP180;7865;50.918;4.510;2023-07-08T06:29:12;101012.00;;;24.60
15607;BMP180;7865;50.918;4.510;2023-07-08T06:34:13;101001.00;;;25.00
15607;BMP180;7865;50.918;4.510;2023-07-08T06:39:15;101005.00;;;25.40
15607;BMP180;7865;50.918;4.510;2023-07-08T06:44:16;100996.00;;;25.70
15607;BMP180;7865;50.918;4.510;2023-07-08T06:49:17;101000.00;;;26.10
15607;BMP180;7865;50.918;4.510;2023-07-08T06:54:18;100996.00;;;26.70
15607;BMP180;7865;50.918;4.510;2023-07-08T06:59:20;101016.00;;;27.20
15607;BMP180;7865;50.918;4.510;2023-07-08T07:04:21;101028.00;;;27.70
15607;BMP180;7865;50.918;4.510;2023-07-08T07:09:22;101030.00;;;28.10
15607;BMP180;7865;50.918;4.510;2023-07-08T07:14:23;101042.00;;;28.50
15607;BMP180;7865;50.918;4.510;2023-07-08T07:19:27;101040.00;;;29.00
15607;BMP180;7865;50.918;4.510;2023-07-08T07:24:29;101022.00;;;29.10
15607;BMP180;7865;50.918;4.510;2023-07-08T07:29:41;101029.00;;;29.60
15607;BMP180;7865;50.918;4.510;2023-07-08T07:34:42;101018.00;;;30.10
15607;BMP180;7865;50.918;4.510;2023-07-08T07:39:44;101024.00;;;30.50
15607;BMP180;7865;50.918;4.510;2023-07-08T07:44:45;101014.00;;;31.00
15607;BMP180;7865;50.918;4.510;2023-07-08T07:49:47;101024.00;;;31.50
15607;BMP180;7865;50.918;4.510;2023-07-08T07:54:48;101012.00;;;31.90
15607;BMP180;7865;50.918;4.510;2023-07-08T07:59:50;101015.00;;;32.30
15607;BMP180;7865;50.918;4.510;2023-07-08T08:04:51;101015.00;;;32.50
15607;BMP180;7865;50.918;4.510;2023-07-08T08:09:52;101021.00;;;32.80
15607;BMP180;7865;50.918;4.510;2023-07-08T08:14:53;101016.00;;;33.20
15607;BMP180;7865;50.918;4.510;2023-07-08T08:19:55;101033.00;;;33.60
15607;BMP180;7865;50.918;4.510;2023-07-08T08:24:56;101026.00;;;34.00
15607;BMP180;7865;50.918;4.510;2023-07-08T08:29:57;101022.00;;;34.50
15607;BMP180;7865;50.918;4.510;2023-07-08T08:34:58;101026.00;;;34.70
15607;BMP180;7865;50.918;4.510;2023-07-08T08:40:03;101031.00;;;35.30
15607;BMP180;7865;50.918;4.510;2023-07-08T08:45:08;101021.00;;;35.70
15607;BMP180;7865;50.918;4.510;2023-07-08T08:50:39;101030.00;;;35.90
15607;BMP180;7865;50.918;4.510;2023-07-08T08:55:47;101032.00;;;36.30
15607;BMP180;7865;50.918;4.510;2023-07-08T09:00:59;101033.00;;;36.60
15607;BMP180;7865;50.918;4.510;2023-07-08T09:06:13;101017.00;;;37.10
15607;BMP180;7865;50.918;4.510;2023-07-08T09:11:41;101018.00;;;36.60
15607;BMP180;7865;50.918;4.510;2023-07-08T09:16:54;101022.00;;;37.00
15607;BMP180;7865;50.918;4.510;2023-07-08T09:22:11;101025.00;;;37.30
15607;BMP180;7865;50.918;4.510;2023-07-08T09:27:15;101025.00;;;37.20
15607;BMP180;7865;50.918;4.510;2023-07-08T09:37:30;101028.00;;;37.90
15607;BMP180;7865;50.918;4.510;2023-07-08T09:42:33;101029.00;;;38.10
15607;BMP180;7865;50.918;4.510;2023-07-08T09:47:36;101028.00;;;38.40
15607;BMP180;7865;50.918;4.510;2023-07-08T09:52:38;101023.00;;;38.90
15607;BMP180;7865;50.918;4.510;2023-07-08T09:57:40;101029.00;;;38.90
15607;BMP180;7865;50.918;4.510;2023-07-08T10:02:51;101026.00;;;38.90
15607;BMP180;7865;50.918;4.510;2023-07-08T10:07:55;101031.00;;;39.20
15607;BMP180;7865;50.918;4.510;2023-07-08T10:13:04;101036.00;;;39.40
15607;BMP180;7865;50.918;4.510;2023-07-08T10:18:13;101037.00;;;39.20
15607;BMP180;7865;50.918;4.510;2023-07-08T10:29:40;101024.00;;;39.20
15607;BMP180;7865;50.918;4.510;2023-07-08T10:34:57;101035.00;;;39.50
15607;BMP180;7865;50.918;4.510;2023-07-08T10:40:57;101035.00;;;39.70
15607;BMP180;7865;50.918;4.510;2023-07-08T10:45:49;101034.00;;;39.60
15607;BMP180;7865;50.918;4.510;2023-07-08T10:51:21;101038.00;;;39.50
15607;BMP180;7865;50.918;4.510;2023-07-08T10:56:34;101041.00;;;39.60
15607;BMP180;7865;50.918;4.510;2023-07-08T11:02:11;101037.00;;;39.90
15607;BMP180;7865;50.918;4.510;2023-07-08T11:13:02;101033.00;;;39.60
15607;BMP180;7865;50.918;4.510;2023-07-08T11:18:12;101029.00;;;39.70
15607;BMP180;7865;50.918;4.510;2023-07-08T11:28:38;101037.00;;;40.80
15607;BMP180;7865;50.918;4.510;2023-07-08T11:33:40;101033.00;;;40.70
15607;BMP180;7865;50.918;4.510;2023-07-08T11:38:49;101023.00;;;40.90
15607;BMP180;7865;50.918;4.510;2023-07-08T11:44:11;101022.00;;;41.20
15607;BMP180;7865;50.918;4.510;2023-07-08T11:49:13;101011.00;;;41.00
15607;BMP180;7865;50.918;4.510;2023-07-08T11:54:27;101017.00;;;41.40
15607;BMP180;7865;50.918;4.510;2023-07-08T11:59:32;101003.00;;;41.80
15607;BMP180;7865;50.918;4.510;2023-07-08T12:04:35;100992.00;;;42.30
15607;BMP180;7865;50.918;4.510;2023-07-08T12:09:44;100989.00;;;42.20
15607;BMP180;7865;50.918;4.510;2023-07-08T12:14:46;100993.00;;;42.20
15607;BMP180;7865;50.918;4.510;2023-07-08T12:19:49;100988.00;;;41.60
15607;BMP180;7865;50.918;4.510;2023-07-08T12:24:51;100986.00;;;41.10
15607;BMP180;7865;50.918;4.510;2023-07-08T12:29:53;100975.00;;;41.70
15607;BMP180;7865;50.918;4.510;2023-07-08T12:34:54;100979.00;;;41.90
15607;BMP180;7865;50.918;4.510;2023-07-08T12:39:56;100988.00;;;41.50
15607;BMP180;7865;50.918;4.510;2023-07-08T12:45:00;100999.00;;;40.50
15607;BMP180;7865;50.918;4.510;2023-07-08T12:50:01;101002.00;;;40.10
15607;BMP180;7865;50.918;4.510;2023-07-08T12:55:03;101013.00;;;39.80
15607;BMP180;7865;50.918;4.510;2023-07-08T13:00:05;101049.00;;;38.80
15607;BMP180;7865;50.918;4.510;2023-07-08T13:05:07;101057.00;;;36.10
15607;BMP180;7865;50.918;4.510;2023-07-08T13:10:20;101049.00;;;33.40
15607;BMP180;7865;50.918;4.510;2023-07-08T13:15:28;101055.00;;;31.00
15607;BMP180;7865;50.918;4.510;2023-07-08T13:20:30;101031.00;;;29.30
15607;BMP180;7865;50.918;4.510;2023-07-08T13:25:32;101051.00;;;27.90
15607;BMP180;7865;50.918;4.510;2023-07-08T13:30:34;101064.00;;;26.60
15607;BMP180;7865;50.918;4.510;2023-07-08T13:35:39;101074.00;;;25.00
15607;BMP180;7865;50.918;4.510;2023-07-08T13:40:45;101096.00;;;23.60
15607;BMP180;7865;50.918;4.510;2023-07-08T13:45:47;101049.00;;;21.70
15607;BMP180;7865;50.918;4.510;2023-07-08T13:51:09;101080.00;;;21.30
15607;BMP180;7865;50.918;4.510;2023-07-08T13:56:23;101075.00;;;21.20
15607;BMP180;7865;50.918;4.510;2023-07-08T14:01:26;101083.00;;;21.90
15607;BMP180;7865;50.918;4.510;2023-07-08T14:06:37;101092.00;;;23.20
15607;BMP180;7865;50.918;4.510;2023-07-08T14:11:39;101101.00;;;24.10
15607;BMP180;7865;50.918;4.510;2023-07-08T14:16:46;101083.00;;;25.10
15607;BMP180;7865;50.918;4.510;2023-07-08T14:21:52;101086.00;;;27.00
15607;BMP180;7865;50.918;4.510;2023-07-08T14:26:54;101088.00;;;28.40
15607;BMP180;7865;50.918;4.510;2023-07-08T14:31:55;101096.00;;;29.20
15607;BMP180;7865;50.918;4.510;2023-07-08T14:36:57;101094.00;;;29.40
15607;BMP180;7865;50.918;4.510;2023-07-08T14:42:01;101093.00;;;28.90
15607;BMP180;7865;50.918;4.510;2023-07-08T14:47:08;101102.00;;;29.30
15607;BMP180;7865;50.918;4.510;2023-07-08T14:52:10;101088.00;;;29.50
15607;BMP180;7865;50.918;4.510;2023-07-08T14:57:15;101087.00;;;30.60
15607;BMP180;7865;50.918;4.510;2023-07-08T15:02:19;101086.00;;;31.00
15607;BMP180;7865;50.918;4.510;2023-07-08T15:07:21;101075.00;;;31.00
15607;BMP180;7865;50.918;4.510;2023-07-08T15:12:22;101079.00;;;31.30
15607;BMP180;7865;50.918;4.510;2023-07-08T15:17:24;101087.00;;;31.80
15607;BMP180;7865;50.918;4.510;2023-07-08T15:22:25;101084.00;;;32.20
15607;BMP180;7865;50.918;4.510;2023-07-08T15:27:26;101090.00;;;32.50
15607;BMP180;7865;50.918;4.510;2023-07-08T15:32:28;101084.00;;;33.30
15607;BMP180;7865;50.918;4.510;2023-07-08T15:37:42;101081.00;;;34.40
15607;BMP180;7865;50.918;4.510;2023-07-08T15:42:46;101080.00;;;34.60
15607;BMP180;7865;50.918;4.510;2023-07-08T15:47:49;101090.00;;;33.40
15607;BMP180;7865;50.918;4.510;2023-07-08T15:52:51;101086.00;;;32.90
15607;BMP180;7865;50.918;4.510;2023-07-08T15:58:06;101070.00;;;31.60
15607;BMP180;7865;50.918;4.510;2023-07-08T16:03:27;101072.00;;;31.00
15607;BMP180;7865;50.918;4.510;2023-07-08T16:08:29;101065.00;;;30.90
15607;BMP180;7865;50.918;4.510;2023-07-08T16:13:34;101060.00;;;30.80
15607;BMP180;7865;50.918;4.510;2023-07-08T16:18:39;101065.00;;;30.60
15607;BMP180;7865;50.918;4.510;2023-07-08T16:23:40;101071.00;;;30.40
15607;BMP180;7865;50.918;4.510;2023-07-08T16:28:43;101061.00;;;30.60
15607;BMP180;7865;50.918;4.510;2023-07-08T16:33:46;101060.00;;;30.50
15607;BMP180;7865;50.918;4.510;2023-07-08T16:38:48;101064.00;;;30.50
15607;BMP180;7865;50.918;4.510;2023-07-08T16:43:49;101064.00;;;30.40
15607;BMP180;7865;50.918;4.510;2023-07-08T16:48:54;101055.00;;;30.50
15607;BMP180;7865;50.918;4.510;2023-07-08T16:54:08;101052.00;;;30.60
15607;BMP180;7865;50.918;4.510;2023-07-08T16:59:11;101051.00;;;30.80
15607;BMP180;7865;50.918;4.510;2023-07-08T17:04:14;101054.00;;;30.80
15607;BMP180;7865;50.918;4.510;2023-07-08T17:09:16;101056.00;;;30.70
15607;BMP180;7865;50.918;4.510;2023-07-08T17:14:17;101061.00;;;30.50
15607;BMP180;7865;50.918;4.510;2023-07-08T17:19:18;101070.00;;;30.40
15607;BMP180;7865;50.918;4.510;2023-07-08T17:24:20;101059.00;;;30.30
15607;BMP180;7865;50.918;4.510;2023-07-08T17:29:23;101063.00;;;30.10
15607;BMP180;7865;50.918;4.510;2023-07-08T17:34:26;101067.00;;;30.00
15607;BMP180;7865;50.918;4.510;2023-07-08T17:39:28;101075.00;;;29.80
15607;BMP180;7865;50.918;4.510;2023-07-08T17:44:29;101069.00;;;29.60
15607;BMP180;7865;50.918;4.510;2023-07-08T17:49:30;101073.00;;;29.40
15607;BMP180;7865;50.918;4.510;2023-07-08T17:54:32;101065.00;;;29.30
15607;BMP180;7865;50.918;4.510;2023-07-08T17:59:33;101067.00;;;29.40
15607;BMP180;7865;50.918;4.510;2023-07-08T18:04:34;101063.00;;;29.40
15607;BMP180;7865;50.918;4.510;2023-07-08T18:09:36;101065.00;;;29.50
15607;BMP180;7865;50.918;4.510;2023-07-08T18:14:37;101081.00;;;29.70
15607;BMP180;7865;50.918;4.510;2023-07-08T18:19:39;101089.00;;;29.60
15607;BMP180;7865;50.918;4.510;2023-07-08T18:24:41;101096.00;;;29.60
15607;BMP180;7865;50.918;4.510;2023-07-08T18:29:43;101112.00;;;29.40
15607;BMP180;7865;50.918;4.510;2023-07-08T18:34:45;101105.00;;;29.30
15607;BMP180;7865;50.918;4.510;2023-07-08T18:39:46;101105.00;;;29.20
15607;BMP180;7865;50.918;4.510;2023-07-08T18:44:48;101108.00;;;29.00
15607;BMP180;7865;50.918;4.510;2023-07-08T18:49:49;101109.00;;;28.80
15607;BMP180;7865;50.918;4.510;2023-07-08T18:54:51;101122.00;;;28.60
15607;BMP180;7865;50.918;4.510;2023-07-08T18:59:52;101114.00;;;28.40
15607;BMP180;7865;50.918;4.510;2023-07-08T19:04:53;101111.00;;;28.20
15607;BMP180;7865;50.918;4.510;2023-07-08T19:09:55;101114.00;;;28.10
15607;BMP180;7865;50.918;4.510;2023-07-08T19:14:56;101112.00;;;27.90
15607;BMP180;7865;50.918;4.510;2023-07-08T19:19:58;101127.00;;;27.70
15607;BMP180;7865;50.918;4.510;2023-07-08T19:24:59;101101.00;;;27.40
15607;BMP180;7865;50.918;4.510;2023-07-08T19:30:00;101109.00;;;27.10
15607;BMP180;7865;50.918;4.510;2023-07-08T19:35:02;101111.00;;;26.80
15607;BMP180;7865;50.918;4.510;2023-07-08T19:40:03;101119.00;;;26.40
15607;BMP180;7865;50.918;4.510;2023-07-08T19:45:10;101116.00;;;26.10
15607;BMP180;7865;50.918;4.510;2023-07-08T19:50:15;101118.00;;;25.70
15607;BMP180;7865;50.918;4.510;2023-07-08T19:55:17;101117.00;;;25.50
15607;BMP180;7865;50.918;4.510;2023-07-08T20:00:36;101120.00;;;25.20
15607;BMP180;7865;50.918;4.510;2023-07-08T20:05:39;101129.00;;;24.90
15607;BMP180;7865;50.918;4.510;2023-07-08T20:10:40;101144.00;;;24.70
15607;BMP180;7865;50.918;4.510;2023-07-08T20:15:42;101146.00;;;24.60
15607;BMP180;7865;50.918;4.510;2023-07-08T20:20:43;101156.00;;;24.40
15607;BMP180;7865;50.918;4.510;2023-07-08T20:25:45;101169.00;;;24.30
15607;BMP180;7865;50.918;4.510;2023-07-08T20:30:48;101179.00;;;24.20
15607;BMP180;7865;50.918;4.510;2023-07-08T20:35:50;101183.00;;;24.10
15607;BMP180;7865;50.918;4.510;2023-07-08T20:40:52;101185.00;;;24.00
15607;BMP180;7865;50.918;4.510;2023-07-08T20:45:54;101175.00;;;23.90
15607;BMP180;7865;50.918;4.510;2023-07-08T20:50:55;101180.00;;;23.80
15607;BMP180;7865;50.918;4.510;2023-07-08T20:55:57;101178.00;;;23.70
15607;BMP180;7865;50.918;4.510;2023-07-08T21:00:58;101185.00;;;23.60
15607;BMP180;7865;50.918;4.510;2023-07-08T21:06:00;101182.00;;;23.60
15607;BMP180;7865;50.918;4.510;2023-07-08T21:11:03;101179.00;;;23.50
15607;BMP180;7865;50.918;4.510;2023-07-08T21:16:11;101181.00;;;23.50
15607;BMP180;7865;50.918;4.510;2023-07-08T21:21:14;101172.00;;;23.40
15607;BMP180;7865;50.918;4.510;2023-07-08T21:26:28;101179.00;;;23.30
15607;BMP180;7865;50.918;4.510;2023-07-08T21:31:30;101180.00;;;23.20
15607;BMP180;7865;50.918;4.510;2023-07-08T21:36:34;101189.00;;;23.10
15607;BMP180;7865;50.918;4.510;2023-07-08T21:41:35;101184.00;;;23.00
15607;BMP180;7865;50.918;4.510;2023-07-08T21:46:37;101193.00;;;22.80
15607;BMP180;7865;50.918;4.510;2023-07-08T21:51:39;101189.00;;;22.70
15607;BMP180;7865;50.918;4.510;2023-07-08T21:56:40;101197.00;;;22.60
15607;BMP180;7865;50.918;4.510;2023-07-08T22:01:42;101202.00;;;22.50
15607;BMP180;7865;50.918;4.510;2023-07-08T22:06:44;101201.00;;;22.40
15607;BMP180;7865;50.918;4.510;2023-07-08T22:11:46;101208.00;;;22.30
15607;BMP180;7865;50.918;4.510;2023-07-08T22:16:47;101214.00;;;22.20
15607;BMP180;7865;50.918;4.510;2023-07-08T22:22:09;101218.00;;;22.10
15607;BMP180;7865;50.918;4.510;2023-07-08T22:27:11;101212.00;;;22.10
15607;BMP180;7865;50.918;4.510;2023-07-08T22:32:12;101217.00;;;22.00
15607;BMP180;7865;50.918;4.510;2023-07-08T22:37:13;101221.00;;;22.00
15607;BMP180;7865;50.918;4.510;2023-07-08T22:42:15;101213.00;;;21.90
15607;BMP180;7865;50.918;4.510;2023-07-08T22:47:17;101208.00;;;21.80
15607;BMP180;7865;50.918;4.510;2023-07-08T22:52:29;101209.00;;;21.80
15607;BMP180;7865;50.918;4.510;2023-07-08T22:57:32;101208.00;;;21.70
15607;BMP180;7865;50.918;4.510;2023-07-08T23:02:33;101195.00;;;21.60
15607;BMP180;7865;50.918;4.510;2023-07-08T23:07:35;101198.00;;;21.60
15607;BMP180;7865;50.918;4.510;2023-07-08T23:12:36;101206.00;;;21.50
15607;BMP180;7865;50.918;4.510;2023-07-08T23:17:42;101197.00;;;21.40
15607;BMP180;7865;50.918;4.510;2023-07-08T23:22:44;101199.00;;;21.30
15607;BMP180;7865;50.918;4.510;2023-07-08T23:27:46;101198.00;;;21.20
15607;BMP180;7865;50.918;4.510;2023-07-08T23:32:47;101190.00;;;21.10
15607;BMP180;7865;50.918;4.510;2023-07-08T23:37:49;101196.00;;;21.10
15607;BMP180;7865;50.918;4.510;2023-07-08T23:42:50;101199.00;;;21.00
15607;BMP180;7865;50.918;4.510;2023-07-08T23:47:51;101195.00;;;20.90
15607;BMP180;7865;50.918;4.510;2023-07-08T23:52:53;101196.00;;;20.90
15607;BMP180;7865;50.918;4.510;2023-07-08T23:57:54;101197.00;;;20.80
